sensor_id;sensor_type;location;lat;lon;timestamp;P1;durP1;ratioP1;P2;durP2;ratioP2
47335;SDS011;33068;51.990;5.926;2022-09-28T00:01:42;22.17;;;12.13;;
47335;SDS011;33068;51.990;5.926;2022-09-28T00:04:11;22.83;;;12.60;;
47335;SDS011;33068;51.990;5.926;2022-09-28T00:06:38;19.00;;;12.00;;
47335;SDS011;33068;51.990;5.926;2022-09-28T00:09:06;21.83;;;13.77;;
47335;SDS011;33068;51.990;5.926;2022-09-28T00:11:33;21.65;;;13.63;;
47335;SDS011;33068;51.990;5.926;2022-09-28T00:14:00;22.85;;;12.35;;
47335;SDS011;33068;51.990;5.926;2022-09-28T00:16:29;21.98;;;12.93;;
47335;SDS011;33068;51.990;5.926;2022-09-28T00:18:58;22.05;;;12.48;;
47335;SDS011;33068;51.990;5.926;2022-09-28T00:21:27;25.52;;;13.85;;
47335;SDS011;33068;51.990;5.926;2022-09-28T00:23:56;17.65;;;12.30;;
47335;SDS011;33068;51.990;5.926;2022-09-28T00:26:44;18.20;;;12.32;;
47335;SDS011;33068;51.990;5.926;2022-09-28T00:29:17;19.70;;;12.82;;
47335;SDS011;33068;51.990;5.926;2022-09-28T00:31:46;23.73;;;13.45;;
47335;SDS011;33068;51.990;5.926;2022-09-28T00:34:14;18.90;;;12.23;;
47335;SDS011;33068;51.990;5.926;2022-09-28T00:36:43;19.85;;;13.10;;
47335;SDS011;33068;51.990;5.926;2022-09-28T00:39:12;24.80;;;13.15;;
47335;SDS011;33068;51.990;5.926;2022-09-28T00:41:41;18.65;;;12.98;;
47335;SDS011;33068;51.990;5.926;2022-09-28T00:44:30;20.27;;;12.85;;
47335;SDS011;33068;51.990;5.926;2022-09-28T00:47:15;19.95;;;12.73;;
47335;SDS011;33068;51.990;5.926;2022-09-28T00:49:58;22.38;;;13.82;;
47335;SDS011;33068;51.990;5.926;2022-09-28T00:52:30;20.83;;;12.63;;
47335;SDS011;33068;51.990;5.926;2022-09-28T00:55:01;24.95;;;11.93;;
47335;SDS011;33068;51.990;5.926;2022-09-28T00:57:31;23.13;;;13.07;;
47335;SDS011;33068;51.990;5.926;2022-09-28T00:59:59;28.77;;;14.20;;
47335;SDS011;33068;51.990;5.926;2022-09-28T01:02:30;18.70;;;12.05;;
47335;SDS011;33068;51.990;5.926;2022-09-28T01:04:57;25.20;;;13.35;;
47335;SDS011;33068;51.990;5.926;2022-09-28T01:07:26;23.77;;;13.52;;
47335;SDS011;33068;51.990;5.926;2022-09-28T01:09:54;21.38;;;13.20;;
47335;SDS011;33068;51.990;5.926;2022-09-28T01:12:22;22.45;;;13.63;;
47335;SDS011;33068;51.990;5.926;2022-09-28T01:14:49;21.67;;;14.43;;
47335;SDS011;33068;51.990;5.926;2022-09-28T01:17:19;24.45;;;14.70;;
47335;SDS011;33068;51.990;5.926;2022-09-28T01:20:01;25.92;;;14.73;;
47335;SDS011;33068;51.990;5.926;2022-09-28T01:25:53;23.38;;;14.15;;
47335;SDS011;33068;51.990;5.926;2022-09-28T01:28:26;24.77;;;14.52;;
47335;SDS011;33068;51.990;5.926;2022-09-28T01:30:56;24.35;;;14.88;;
47335;SDS011;33068;51.990;5.926;2022-09-28T01:33:30;23.73;;;14.57;;
47335;SDS011;33068;51.990;5.926;2022-09-28T01:36:04;25.80;;;14.73;;
47335;SDS011;33068;51.990;5.926;2022-09-28T01:38:38;23.67;;;13.98;;
47335;SDS011;33068;51.990;5.926;2022-09-28T01:41:08;24.63;;;14.00;;
47335;SDS011;33068;51.990;5.926;2022-09-28T01:43:39;25.63;;;15.25;;
47335;SDS011;33068;51.990;5.926;2022-09-28T01:46:12;29.63;;;14.75;;
47335;SDS011;33068;51.990;5.926;2022-09-28T01:48:42;25.95;;;14.98;;
47335;SDS011;33068;51.990;5.926;2022-09-28T01:51:15;24.48;;;14.30;;
47335;SDS011;33068;51.990;5.926;2022-09-28T01:53:47;24.48;;;14.82;;
47335;SDS011;33068;51.990;5.926;2022-09-28T01:56:22;21.85;;;13.38;;
47335;SDS011;33068;51.990;5.926;2022-09-28T01:58:54;21.38;;;13.30;;
47335;SDS011;33068;51.990;5.926;2022-09-28T02:01:26;22.00;;;13.90;;
47335;SDS011;33068;51.990;5.926;2022-09-28T02:04:04;22.05;;;13.38;;
47335;SDS011;33068;51.990;5.926;2022-09-28T02:06:37;29.00;;;14.60;;
47335;SDS011;33068;51.990;5.926;2022-09-28T02:09:11;22.67;;;13.23;;
47335;SDS011;33068;51.990;5.926;2022-09-28T02:11:44;22.73;;;13.27;;
47335;SDS011;33068;51.990;5.926;2022-09-28T02:14:17;20.45;;;13.15;;
47335;SDS011;33068;51.990;5.926;2022-09-28T02:16:47;25.30;;;14.10;;
47335;SDS011;33068;51.990;5.926;2022-09-28T02:19:24;24.13;;;13.68;;
47335;SDS011;33068;51.990;5.926;2022-09-28T02:21:55;26.13;;;13.60;;
47335;SDS011;33068;51.990;5.926;2022-09-28T02:24:27;23.13;;;13.60;;
47335;SDS011;33068;51.990;5.926;2022-09-28T02:27:02;27.05;;;13.98;;
47335;SDS011;33068;51.990;5.926;2022-09-28T02:29:44;28.58;;;14.63;;
47335;SDS011;33068;51.990;5.926;2022-09-28T02:32:11;23.73;;;13.75;;
47335;SDS011;33068;51.990;5.926;2022-09-28T02:34:38;28.85;;;14.63;;
47335;SDS011;33068;51.990;5.926;2022-09-28T02:37:05;27.88;;;14.77;;
47335;SDS011;33068;51.990;5.926;2022-09-28T02:39:32;27.63;;;14.80;;
47335;SDS011;33068;51.990;5.926;2022-09-28T02:42:01;24.80;;;15.68;;
47335;SDS011;33068;51.990;5.926;2022-09-28T02:44:48;22.88;;;14.13;;
47335;SDS011;33068;51.990;5.926;2022-09-28T02:47:37;31.23;;;15.32;;
47335;SDS011;33068;51.990;5.926;2022-09-28T02:50:19;24.70;;;15.25;;
47335;SDS011;33068;51.990;5.926;2022-09-28T02:52:58;26.15;;;15.20;;
47335;SDS011;33068;51.990;5.926;2022-09-28T02:56:09;28.75;;;15.45;;
47335;SDS011;33068;51.990;5.926;2022-09-28T02:58:50;23.98;;;14.98;;
47335;SDS011;33068;51.990;5.926;2022-09-28T03:01:27;30.05;;;15.40;;
47335;SDS011;33068;51.990;5.926;2022-09-28T03:04:03;26.20;;;15.68;;
47335;SDS011;33068;51.990;5.926;2022-09-28T03:06:38;23.25;;;15.15;;
47335;SDS011;33068;51.990;5.926;2022-09-28T03:09:12;27.50;;;15.60;;
47335;SDS011;33068;51.990;5.926;2022-09-28T03:11:44;24.73;;;14.60;;
47335;SDS011;33068;51.990;5.926;2022-09-28T03:14:15;27.35;;;15.70;;
47335;SDS011;33068;51.990;5.926;2022-09-28T03:19:20;27.50;;;13.98;;
47335;SDS011;33068;51.990;5.926;2022-09-28T03:21:50;26.40;;;14.68;;
47335;SDS011;33068;51.990;5.926;2022-09-28T03:24:17;30.88;;;16.67;;
47335;SDS011;33068;51.990;5.926;2022-09-28T03:26:44;23.48;;;15.50;;
47335;SDS011;33068;51.990;5.926;2022-09-28T03:29:12;22.23;;;14.15;;
47335;SDS011;33068;51.990;5.926;2022-09-28T03:31:41;23.25;;;14.70;;
47335;SDS011;33068;51.990;5.926;2022-09-28T03:34:10;25.02;;;14.63;;
47335;SDS011;33068;51.990;5.926;2022-09-28T03:36:39;25.00;;;14.48;;
47335;SDS011;33068;51.990;5.926;2022-09-28T03:39:07;21.42;;;13.98;;
47335;SDS011;33068;51.990;5.926;2022-09-28T03:41:35;28.95;;;15.13;;
47335;SDS011;33068;51.990;5.926;2022-09-28T03:44:03;23.73;;;13.88;;
47335;SDS011;33068;51.990;5.926;2022-09-28T03:46:31;22.77;;;13.45;;
47335;SDS011;33068;51.990;5.926;2022-09-28T03:49:03;25.17;;;13.02;;
47335;SDS011;33068;51.990;5.926;2022-09-28T03:51:32;20.80;;;11.75;;
47335;SDS011;33068;51.990;5.926;2022-09-28T03:53:59;20.75;;;12.45;;
47335;SDS011;33068;51.990;5.926;2022-09-28T03:56:26;18.42;;;11.45;;
47335;SDS011;33068;51.990;5.926;2022-09-28T03:58:53;18.17;;;11.35;;
47335;SDS011;33068;51.990;5.926;2022-09-28T04:01:20;18.15;;;11.57;;
47335;SDS011;33068;51.990;5.926;2022-09-28T04:03:51;19.23;;;10.73;;
47335;SDS011;33068;51.990;5.926;2022-09-28T04:06:19;17.15;;;10.82;;
47335;SDS011;33068;51.990;5.926;2022-09-28T04:08:48;16.65;;;10.05;;
47335;SDS011;33068;51.990;5.926;2022-09-28T04:11:15;19.17;;;10.73;;
47335;SDS011;33068;51.990;5.926;2022-09-28T04:13:46;16.45;;;10.82;;
47335;SDS011;33068;51.990;5.926;2022-09-28T04:16:15;14.90;;;9.93;;
47335;SDS011;33068;51.990;5.926;2022-09-28T04:18:50;18.30;;;11.13;;
47335;SDS011;33068;51.990;5.926;2022-09-28T04:21:46;13.50;;;8.73;;
47335;SDS011;33068;51.990;5.926;2022-09-28T04:24:17;15.65;;;9.35;;
47335;SDS011;33068;51.990;5.926;2022-09-28T04:26:46;16.02;;;10.13;;
47335;SDS011;33068;51.990;5.926;2022-09-28T04:29:13;14.60;;;9.38;;
47335;SDS011;33068;51.990;5.926;2022-09-28T04:31:43;14.48;;;9.02;;
47335;SDS011;33068;51.990;5.926;2022-09-28T04:34:13;13.57;;;7.55;;
47335;SDS011;33068;51.990;5.926;2022-09-28T04:36:42;10.90;;;7.20;;
47335;SDS011;33068;51.990;5.926;2022-09-28T04:39:10;11.85;;;7.80;;
47335;SDS011;33068;51.990;5.926;2022-09-28T04:41:40;15.32;;;8.15;;
47335;SDS011;33068;51.990;5.926;2022-09-28T04:44:08;11.60;;;7.75;;
47335;SDS011;33068;51.990;5.926;2022-09-28T04:46:35;11.43;;;7.90;;
47335;SDS011;33068;51.990;5.926;2022-09-28T04:49:21;9.60;;;6.57;;
47335;SDS011;33068;51.990;5.926;2022-09-28T04:51:54;12.30;;;7.47;;
47335;SDS011;33068;51.990;5.926;2022-09-28T04:54:21;12.32;;;7.40;;
47335;SDS011;33068;51.990;5.926;2022-09-28T04:56:50;12.15;;;7.50;;
47335;SDS011;33068;51.990;5.926;2022-09-28T04:59:18;12.07;;;7.30;;
47335;SDS011;33068;51.990;5.926;2022-09-28T05:01:45;11.70;;;7.55;;
47335;SDS011;33068;51.990;5.926;2022-09-28T05:07:28;8.93;;;6.30;;
47335;SDS011;33068;51.990;5.926;2022-09-28T05:09:56;10.07;;;6.30;;
47335;SDS011;33068;51.990;5.926;2022-09-28T05:12:27;12.40;;;7.60;;
47335;SDS011;33068;51.990;5.926;2022-09-28T05:14:55;11.70;;;6.72;;
47335;SDS011;33068;51.990;5.926;2022-09-28T05:17:23;12.77;;;7.20;;
47335;SDS011;33068;51.990;5.926;2022-09-28T05:20:16;10.55;;;6.38;;
47335;SDS011;33068;51.990;5.926;2022-09-28T05:22:43;12.52;;;7.47;;
47335;SDS011;33068;51.990;5.926;2022-09-28T05:25:10;13.00;;;8.07;;
47335;SDS011;33068;51.990;5.926;2022-09-28T05:28:08;11.00;;;7.60;;
47335;SDS011;33068;51.990;5.926;2022-09-28T05:30:46;12.57;;;7.78;;
47335;SDS011;33068;51.990;5.926;2022-09-28T05:33:43;12.63;;;7.57;;
47335;SDS011;33068;51.990;5.926;2022-09-28T05:36:12;11.57;;;7.18;;
47335;SDS011;33068;51.990;5.926;2022-09-28T05:38:42;10.38;;;7.20;;
47335;SDS011;33068;51.990;5.926;2022-09-28T05:41:14;13.23;;;7.53;;
47335;SDS011;33068;51.990;5.926;2022-09-28T05:43:42;10.23;;;7.55;;
47335;SDS011;33068;51.990;5.926;2022-09-28T05:46:10;10.50;;;7.63;;
47335;SDS011;33068;51.990;5.926;2022-09-28T05:48:39;13.93;;;8.38;;
47335;SDS011;33068;51.990;5.926;2022-09-28T05:51:10;15.13;;;8.50;;
47335;SDS011;33068;51.990;5.926;2022-09-28T05:53:38;13.93;;;9.38;;
47335;SDS011;33068;51.990;5.926;2022-09-28T05:56:05;15.43;;;9.70;;
47335;SDS011;33068;51.990;5.926;2022-09-28T05:58:34;14.57;;;9.55;;
47335;SDS011;33068;51.990;5.926;2022-09-28T06:01:03;15.15;;;9.48;;
47335;SDS011;33068;51.990;5.926;2022-09-28T06:03:30;17.65;;;9.52;;
47335;SDS011;33068;51.990;5.926;2022-09-28T06:05:59;17.08;;;9.73;;
47335;SDS011;33068;51.990;5.926;2022-09-28T06:08:27;15.80;;;10.20;;
47335;SDS011;33068;51.990;5.926;2022-09-28T06:11:09;16.85;;;8.70;;
47335;SDS011;33068;51.990;5.926;2022-09-28T06:13:37;15.13;;;8.35;;
47335;SDS011;33068;51.990;5.926;2022-09-28T06:16:08;13.85;;;9.25;;
47335;SDS011;33068;51.990;5.926;2022-09-28T06:18:40;14.55;;;9.13;;
47335;SDS011;33068;51.990;5.926;2022-09-28T06:21:07;14.57;;;9.63;;
47335;SDS011;33068;51.990;5.926;2022-09-28T06:23:40;16.52;;;9.98;;
47335;SDS011;33068;51.990;5.926;2022-09-28T06:26:08;14.90;;;9.35;;
47335;SDS011;33068;51.990;5.926;2022-09-28T06:28:35;16.90;;;10.90;;
47335;SDS011;33068;51.990;5.926;2022-09-28T06:31:04;14.52;;;9.27;;
47335;SDS011;33068;51.990;5.926;2022-09-28T06:33:40;16.80;;;9.60;;
47335;SDS011;33068;51.990;5.926;2022-09-28T06:36:08;19.05;;;10.02;;
47335;SDS011;33068;51.990;5.926;2022-09-28T06:38:36;14.40;;;8.90;;
47335;SDS011;33068;51.990;5.926;2022-09-28T06:41:03;12.80;;;9.10;;
47335;SDS011;33068;51.990;5.926;2022-09-28T06:43:31;12.55;;;8.68;;
47335;SDS011;33068;51.990;5.926;2022-09-28T06:46:25;16.42;;;9.48;;
47335;SDS011;33068;51.990;5.926;2022-09-28T06:49:09;13.15;;;9.15;;
47335;SDS011;33068;51.990;5.926;2022-09-28T06:52:09;18.98;;;11.27;;
47335;SDS011;33068;51.990;5.926;2022-09-28T06:54:59;20.05;;;9.80;;
47335;SDS011;33068;51.990;5.926;2022-09-28T06:57:48;14.70;;;10.57;;
47335;SDS011;33068;51.990;5.926;2022-09-28T07:00:23;16.83;;;10.48;;
47335;SDS011;33068;51.990;5.926;2022-09-28T07:02:50;15.48;;;10.52;;
47335;SDS011;33068;51.990;5.926;2022-09-28T07:05:39;15.05;;;10.18;;
47335;SDS011;33068;51.990;5.926;2022-09-28T07:08:20;16.00;;;9.40;;
47335;SDS011;33068;51.990;5.926;2022-09-28T07:11:15;15.18;;;9.15;;
47335;SDS011;33068;51.990;5.926;2022-09-28T07:13:58;11.25;;;8.23;;
47335;SDS011;33068;51.990;5.926;2022-09-28T07:16:28;10.95;;;7.97;;
47335;SDS011;33068;51.990;5.926;2022-09-28T07:18:55;13.80;;;8.43;;
47335;SDS011;33068;51.990;5.926;2022-09-28T07:21:24;11.25;;;8.65;;
47335;SDS011;33068;51.990;5.926;2022-09-28T07:23:51;9.10;;;7.28;;
47335;SDS011;33068;51.990;5.926;2022-09-28T07:26:21;8.45;;;7.05;;
47335;SDS011;33068;51.990;5.926;2022-09-28T07:29:22;9.93;;;6.28;;
47335;SDS011;33068;51.990;5.926;2022-09-28T07:32:08;8.35;;;5.13;;
47335;SDS011;33068;51.990;5.926;2022-09-28T07:34:54;9.77;;;5.47;;
47335;SDS011;33068;51.990;5.926;2022-09-28T07:37:41;7.93;;;5.27;;
47335;SDS011;33068;51.990;5.926;2022-09-28T07:40:09;6.38;;;4.95;;
47335;SDS011;33068;51.990;5.926;2022-09-28T07:42:54;5.45;;;4.22;;
47335;SDS011;33068;51.990;5.926;2022-09-28T07:45:22;6.85;;;4.68;;
47335;SDS011;33068;51.990;5.926;2022-09-28T07:47:49;6.72;;;4.28;;
47335;SDS011;33068;51.990;5.926;2022-09-28T07:50:40;7.68;;;3.95;;
47335;SDS011;33068;51.990;5.926;2022-09-28T07:53:20;8.63;;;3.55;;
47335;SDS011;33068;51.990;5.926;2022-09-28T07:56:08;3.97;;;2.80;;
47335;SDS011;33068;51.990;5.926;2022-09-28T07:58:45;5.15;;;3.10;;
47335;SDS011;33068;51.990;5.926;2022-09-28T08:01:39;4.15;;;2.45;;
47335;SDS011;33068;51.990;5.926;2022-09-28T08:04:09;2.17;;;1.98;;
47335;SDS011;33068;51.990;5.926;2022-09-28T08:06:39;2.78;;;1.73;;
47335;SDS011;33068;51.990;5.926;2022-09-28T08:09:10;2.08;;;1.40;;
47335;SDS011;33068;51.990;5.926;2022-09-28T08:11:56;1.30;;;1.00;;
47335;SDS011;33068;51.990;5.926;2022-09-28T08:14:52;2.60;;;1.00;;
47335;SDS011;33068;51.990;5.926;2022-09-28T08:17:44;4.13;;;0.90;;
47335;SDS011;33068;51.990;5.926;2022-09-28T08:20:12;1.83;;;0.90;;
47335;SDS011;33068;51.990;5.926;2022-09-28T08:23:01;1.38;;;1.00;;
47335;SDS011;33068;51.990;5.926;2022-09-28T08:25:30;3.67;;;1.58;;
47335;SDS011;33068;51.990;5.926;2022-09-28T08:28:01;2.42;;;1.42;;
47335;SDS011;33068;51.990;5.926;2022-09-28T08:30:30;1.90;;;1.70;;
47335;SDS011;33068;51.990;5.926;2022-09-28T08:33:11;5.13;;;2.83;;
47335;SDS011;33068;51.990;5.926;2022-09-28T08:35:41;10.63;;;1.70;;
47335;SDS011;33068;51.990;5.926;2022-09-28T08:38:29;2.17;;;1.20;;
47335;SDS011;33068;51.990;5.926;2022-09-28T08:41:38;2.67;;;1.23;;
47335;SDS011;33068;51.990;5.926;2022-09-28T08:44:38;1.25;;;0.80;;
47335;SDS011;33068;51.990;5.926;2022-09-28T08:47:12;3.03;;;0.90;;
47335;SDS011;33068;51.990;5.926;2022-09-28T08:50:15;0.50;;;0.50;;
47335;SDS011;33068;51.990;5.926;2022-09-28T08:53:08;10.38;;;0.80;;
47335;SDS011;33068;51.990;5.926;2022-09-28T08:56:01;2.30;;;0.60;;
47335;SDS011;33068;51.990;5.926;2022-09-28T08:58:34;1.65;;;0.98;;
47335;SDS011;33068;51.990;5.926;2022-09-28T09:01:06;3.38;;;0.60;;
47335;SDS011;33068;51.990;5.926;2022-09-28T09:03:38;1.05;;;0.60;;
47335;SDS011;33068;51.990;5.926;2022-09-28T09:06:29;1.13;;;0.25;;
47335;SDS011;33068;51.990;5.926;2022-09-28T09:09:25;2.37;;;0.30;;
47335;SDS011;33068;51.990;5.926;2022-09-28T09:12:05;1.65;;;0.50;;
47335;SDS011;33068;51.990;5.926;2022-09-28T09:17:51;2.97;;;0.30;;
47335;SDS011;33068;51.990;5.926;2022-09-28T09:20:41;0.90;;;0.28;;
47335;SDS011;33068;51.990;5.926;2022-09-28T09:23:23;0.20;;;0.20;;
47335;SDS011;33068;51.990;5.926;2022-09-28T09:26:02;0.40;;;0.30;;
47335;SDS011;33068;51.990;5.926;2022-09-28T09:28:49;0.40;;;0.20;;
47335;SDS011;33068;51.990;5.926;2022-09-28T09:31:46;1.92;;;0.20;;
47335;SDS011;33068;51.990;5.926;2022-09-28T09:34:32;0.45;;;0.20;;
47335;SDS011;33068;51.990;5.926;2022-09-28T09:38:00;0.73;;;0.20;;
47335;SDS011;33068;51.990;5.926;2022-09-28T09:40:54;0.82;;;0.10;;
47335;SDS011;33068;51.990;5.926;2022-09-28T09:43:56;0.22;;;0.20;;
47335;SDS011;33068;51.990;5.926;2022-09-28T09:47:07;1.35;;;0.20;;
47335;SDS011;33068;51.990;5.926;2022-09-28T09:49:52;1.30;;;0.20;;
47335;SDS011;33068;51.990;5.926;2022-09-28T09:52:27;0.20;;;0.10;;
47335;SDS011;33068;51.990;5.926;2022-09-28T09:55:01;1.30;;;0.13;;
47335;SDS011;33068;51.990;5.926;2022-09-28T09:57:49;0.32;;;0.13;;
47335;SDS011;33068;51.990;5.926;2022-09-28T10:00:43;1.02;;;0.08;;
47335;SDS011;33068;51.990;5.926;2022-09-28T10:03:24;1.13;;;0.22;;
47335;SDS011;33068;51.990;5.926;2022-09-28T10:06:00;0.10;;;0.10;;
47335;SDS011;33068;51.990;5.926;2022-09-28T10:08:32;0.50;;;0.10;;
47335;SDS011;33068;51.990;5.926;2022-09-28T10:11:04;0.88;;;0.20;;
47335;SDS011;33068;51.990;5.926;2022-09-28T10:13:39;1.38;;;0.10;;
47335;SDS011;33068;51.990;5.926;2022-09-28T10:16:27;1.02;;;0.20;;
47335;SDS011;33068;51.990;5.926;2022-09-28T10:19:00;0.40;;;0.20;;
47335;SDS011;33068;51.990;5.926;2022-09-28T10:22:03;0.75;;;0.10;;
47335;SDS011;33068;51.990;5.926;2022-09-28T10:24:33;0.85;;;0.10;;
47335;SDS011;33068;51.990;5.926;2022-09-28T10:27:04;0.10;;;0.10;;
47335;SDS011;33068;51.990;5.926;2022-09-28T10:29:37;1.35;;;0.10;;
47335;SDS011;33068;51.990;5.926;2022-09-28T10:32:17;0.00;;;0.00;;
47335;SDS011;33068;51.990;5.926;2022-09-28T10:34:47;0.30;;;0.10;;
47335;SDS011;33068;51.990;5.926;2022-09-28T10:37:17;1.55;;;0.32;;
47335;SDS011;33068;51.990;5.926;2022-09-28T10:39:58;0.52;;;0.10;;
47335;SDS011;33068;51.990;5.926;2022-09-28T10:42:31;0.40;;;0.10;;
47335;SDS011;33068;51.990;5.926;2022-09-28T10:45:03;1.20;;;0.10;;
47335;SDS011;33068;51.990;5.926;2022-09-28T10:47:45;0.73;;;0.10;;
47335;SDS011;33068;51.990;5.926;2022-09-28T10:50:18;0.30;;;0.20;;
47335;SDS011;33068;51.990;5.926;2022-09-28T10:52:52;0.65;;;0.10;;
47335;SDS011;33068;51.990;5.926;2022-09-28T10:55:54;0.00;;;0.00;;
47335;SDS011;33068;51.990;5.926;2022-09-28T10:58:25;0.63;;;0.00;;
47335;SDS011;33068;51.990;5.926;2022-09-28T11:01:01;0.10;;;0.00;;
47335;SDS011;33068;51.990;5.926;2022-09-28T11:03:33;1.13;;;0.20;;
47335;SDS011;33068;51.990;5.926;2022-09-28T11:06:14;0.20;;;0.00;;
47335;SDS011;33068;51.990;5.926;2022-09-28T11:08:50;0.93;;;0.10;;
47335;SDS011;33068;51.990;5.926;2022-09-28T11:11:20;0.10;;;0.10;;
47335;SDS011;33068;51.990;5.926;2022-09-28T11:13:58;0.10;;;0.10;;
47335;SDS011;33068;51.990;5.926;2022-09-28T11:16:31;4.90;;;0.10;;
47335;SDS011;33068;51.990;5.926;2022-09-28T11:19:02;0.98;;;0.10;;
47335;SDS011;33068;51.990;5.926;2022-09-28T11:21:39;1.55;;;0.20;;
47335;SDS011;33068;51.990;5.926;2022-09-28T11:24:17;0.00;;;0.00;;
47335;SDS011;33068;51.990;5.926;2022-09-28T11:26:46;0.38;;;0.00;;
47335;SDS011;33068;51.990;5.926;2022-09-28T11:29:23;0.28;;;0.10;;
47335;SDS011;33068;51.990;5.926;2022-09-28T11:32:27;1.10;;;0.20;;
47335;SDS011;33068;51.990;5.926;2022-09-28T11:35:16;0.22;;;0.00;;
47335;SDS011;33068;51.990;5.926;2022-09-28T11:37:53;0.22;;;0.05;;
47335;SDS011;33068;51.990;5.926;2022-09-28T11:41:03;0.00;;;0.00;;
47335;SDS011;33068;51.990;5.926;2022-09-28T11:43:48;0.75;;;0.20;;
47335;SDS011;33068;51.990;5.926;2022-09-28T11:46:36;0.08;;;0.00;;
47335;SDS011;33068;51.990;5.926;2022-09-28T11:49:16;0.20;;;0.10;;
47335;SDS011;33068;51.990;5.926;2022-09-28T11:51:52;0.00;;;0.00;;
47335;SDS011;33068;51.990;5.926;2022-09-28T11:54:26;0.75;;;0.10;;
47335;SDS011;33068;51.990;5.926;2022-09-28T11:57:00;1.73;;;0.17;;
47335;SDS011;33068;51.990;5.926;2022-09-28T11:59:30;0.00;;;0.00;;
47335;SDS011;33068;51.990;5.926;2022-09-28T12:02:02;0.60;;;0.03;;
47335;SDS011;33068;51.990;5.926;2022-09-28T12:04:43;0.10;;;0.00;;
47335;SDS011;33068;51.990;5.926;2022-09-28T12:07:17;0.10;;;0.00;;
47335;SDS011;33068;51.990;5.926;2022-09-28T12:09:51;1.00;;;0.10;;
47335;SDS011;33068;51.990;5.926;2022-09-28T12:12:22;0.57;;;0.00;;
47335;SDS011;33068;51.990;5.926;2022-09-28T12:14:58;0.35;;;0.03;;
47335;SDS011;33068;51.990;5.926;2022-09-28T12:17:30;0.63;;;0.00;;
47335;SDS011;33068;51.990;5.926;2022-09-28T12:20:02;1.92;;;0.10;;
47335;SDS011;33068;51.990;5.926;2022-09-28T12:22:39;0.88;;;0.22;;
47335;SDS011;33068;51.990;5.926;2022-09-28T12:25:13;0.20;;;0.00;;
47335;SDS011;33068;51.990;5.926;2022-09-28T12:27:45;1.35;;;0.10;;
47335;SDS011;33068;51.990;5.926;2022-09-28T12:30:17;2.95;;;0.00;;
47335;SDS011;33068;51.990;5.926;2022-09-28T12:32:45;0.10;;;0.08;;
47335;SDS011;33068;51.990;5.926;2022-09-28T12:35:18;0.10;;;0.00;;
47335;SDS011;33068;51.990;5.926;2022-09-28T12:38:09;1.48;;;0.05;;
47335;SDS011;33068;51.990;5.926;2022-09-28T12:40:55;0.20;;;0.10;;
47335;SDS011;33068;51.990;5.926;2022-09-28T12:43:45;0.05;;;0.00;;
47335;SDS011;33068;51.990;5.926;2022-09-28T12:46:25;0.55;;;0.10;;
47335;SDS011;33068;51.990;5.926;2022-09-28T12:51:49;0.47;;;0.03;;
47335;SDS011;33068;51.990;5.926;2022-09-28T12:54:28;0.50;;;0.00;;
47335;SDS011;33068;51.990;5.926;2022-09-28T12:57:23;4.03;;;0.20;;
47335;SDS011;33068;51.990;5.926;2022-09-28T13:00:02;0.30;;;0.10;;
47335;SDS011;33068;51.990;5.926;2022-09-28T13:02:44;0.95;;;0.05;;
47335;SDS011;33068;51.990;5.926;2022-09-28T13:05:41;0.10;;;0.10;;
47335;SDS011;33068;51.990;5.926;2022-09-28T13:08:42;0.40;;;0.10;;
47335;SDS011;33068;51.990;5.926;2022-09-28T13:11:21;0.77;;;0.20;;
47335;SDS011;33068;51.990;5.926;2022-09-28T13:14:13;0.80;;;0.20;;
47335;SDS011;33068;51.990;5.926;2022-09-28T13:16:52;2.63;;;0.28;;
47335;SDS011;33068;51.990;5.926;2022-09-28T13:19:28;0.68;;;0.20;;
47335;SDS011;33068;51.990;5.926;2022-09-28T13:22:14;0.93;;;0.20;;
47335;SDS011;33068;51.990;5.926;2022-09-28T13:24:51;0.43;;;0.10;;
47335;SDS011;33068;51.990;5.926;2022-09-28T13:27:25;1.77;;;0.10;;
47335;SDS011;33068;51.990;5.926;2022-09-28T13:29:56;0.77;;;0.20;;
47335;SDS011;33068;51.990;5.926;2022-09-28T13:32:26;0.80;;;0.20;;
47335;SDS011;33068;51.990;5.926;2022-09-28T13:34:55;0.82;;;0.10;;
47335;SDS011;33068;51.990;5.926;2022-09-28T13:37:26;0.45;;;0.20;;
47335;SDS011;33068;51.990;5.926;2022-09-28T13:39:54;0.80;;;0.10;;
47335;SDS011;33068;51.990;5.926;2022-09-28T13:45:30;3.33;;;0.17;;
47335;SDS011;33068;51.990;5.926;2022-09-28T13:48:15;0.55;;;0.10;;
47335;SDS011;33068;51.990;5.926;2022-09-28T13:51:03;0.38;;;0.00;;
47335;SDS011;33068;51.990;5.926;2022-09-28T13:53:46;0.00;;;0.00;;
47335;SDS011;33068;51.990;5.926;2022-09-28T13:56:41;0.35;;;0.00;;
47335;SDS011;33068;51.990;5.926;2022-09-28T13:59:19;2.30;;;0.20;;
47335;SDS011;33068;51.990;5.926;2022-09-28T14:01:51;2.00;;;0.15;;
47335;SDS011;33068;51.990;5.926;2022-09-28T14:07:20;0.15;;;0.13;;
47335;SDS011;33068;51.990;5.926;2022-09-28T14:12:43;1.95;;;0.25;;
47335;SDS011;33068;51.990;5.926;2022-09-28T14:18:10;0.38;;;0.20;;
47335;SDS011;33068;51.990;5.926;2022-09-28T14:20:49;0.73;;;0.50;;
47335;SDS011;33068;51.990;5.926;2022-09-28T14:23:36;0.55;;;0.30;;
47335;SDS011;33068;51.990;5.926;2022-09-28T14:26:41;3.05;;;0.80;;
47335;SDS011;33068;51.990;5.926;2022-09-28T14:29:30;1.40;;;0.30;;
47335;SDS011;33068;51.990;5.926;2022-09-28T14:32:02;1.25;;;0.43;;
47335;SDS011;33068;51.990;5.926;2022-09-28T14:34:33;2.35;;;1.60;;
47335;SDS011;33068;51.990;5.926;2022-09-28T14:37:03;0.82;;;0.82;;
47335;SDS011;33068;51.990;5.926;2022-09-28T14:40:17;0.82;;;0.38;;
47335;SDS011;33068;51.990;5.926;2022-09-28T14:43:22;0.32;;;0.30;;
47335;SDS011;33068;51.990;5.926;2022-09-28T14:48:53;2.10;;;0.60;;
47335;SDS011;33068;51.990;5.926;2022-09-28T14:54:23;1.35;;;0.32;;
47335;SDS011;33068;51.990;5.926;2022-09-28T14:56:55;1.55;;;0.47;;
47335;SDS011;33068;51.990;5.926;2022-09-28T14:59:38;2.78;;;0.60;;
47335;SDS011;33068;51.990;5.926;2022-09-28T15:02:11;0.80;;;0.57;;
47335;SDS011;33068;51.990;5.926;2022-09-28T15:04:50;1.48;;;0.60;;
47335;SDS011;33068;51.990;5.926;2022-09-28T15:07:22;0.60;;;0.60;;
47335;SDS011;33068;51.990;5.926;2022-09-28T15:09:51;0.75;;;0.65;;
47335;SDS011;33068;51.990;5.926;2022-09-28T15:12:20;1.48;;;0.70;;
47335;SDS011;33068;51.990;5.926;2022-09-28T15:14:51;1.45;;;0.70;;
47335;SDS011;33068;51.990;5.926;2022-09-28T15:17:21;1.23;;;0.60;;
47335;SDS011;33068;51.990;5.926;2022-09-28T15:19:59;1.08;;;0.70;;
47335;SDS011;33068;51.990;5.926;2022-09-28T15:22:50;0.88;;;0.50;;
47335;SDS011;33068;51.990;5.926;2022-09-28T15:25:22;6.40;;;0.73;;
47335;SDS011;33068;51.990;5.926;2022-09-28T15:27:51;1.98;;;0.70;;
47335;SDS011;33068;51.990;5.926;2022-09-28T15:30:21;0.73;;;0.40;;
47335;SDS011;33068;51.990;5.926;2022-09-28T15:32:50;2.90;;;0.80;;
47335;SDS011;33068;51.990;5.926;2022-09-28T15:35:22;0.95;;;0.47;;
47335;SDS011;33068;51.990;5.926;2022-09-28T15:37:55;1.52;;;0.50;;
47335;SDS011;33068;51.990;5.926;2022-09-28T15:40:26;2.15;;;0.57;;
47335;SDS011;33068;51.990;5.926;2022-09-28T15:42:58;0.53;;;0.30;;
47335;SDS011;33068;51.990;5.926;2022-09-28T15:45:27;2.88;;;0.45;;
47335;SDS011;33068;51.990;5.926;2022-09-28T15:50:53;2.20;;;0.50;;
47335;SDS011;33068;51.990;5.926;2022-09-28T15:53:26;0.60;;;0.40;;
47335;SDS011;33068;51.990;5.926;2022-09-28T15:55:57;1.42;;;0.50;;
47335;SDS011;33068;51.990;5.926;2022-09-28T15:58:27;1.13;;;0.20;;
47335;SDS011;33068;51.990;5.926;2022-09-28T16:03:45;0.25;;;0.17;;
47335;SDS011;33068;51.990;5.926;2022-09-28T16:06:12;1.25;;;0.50;;
47335;SDS011;33068;51.990;5.926;2022-09-28T16:08:41;0.55;;;0.40;;
47335;SDS011;33068;51.990;5.926;2022-09-28T16:11:11;1.15;;;0.40;;